RJNS(METAR)
01/21 08:00
METAR RJNS 202300Z 25016KT 9999 FEW025 04/M06 Q1011 RMK 1CU025
A2986=
戻る
トップページへ戻る
IMOC Co,.Ltd.